createdAt,value
2018-02-19T00:00:46.564Z,14.70
2018-02-19T00:02:49.031Z,14.07
2018-02-19T00:04:51.476Z,14.77
2018-02-19T00:06:53.965Z,14.20
2018-02-19T00:08:56.409Z,14.50
2018-02-19T00:10:58.879Z,14.87
2018-02-19T00:13:01.454Z,14.50
2018-02-19T00:15:04.016Z,15.07
2018-02-19T00:17:06.615Z,14.67
2018-02-19T00:19:09.098Z,14.57
2018-02-19T00:21:11.601Z,14.30
2018-02-19T00:23:14.093Z,16.33
2018-02-19T00:25:16.590Z,15.40
2018-02-19T00:27:19.084Z,14.73
2018-02-19T00:29:21.579Z,15.07
2018-02-19T00:31:24.003Z,14.93
2018-02-19T00:33:26.565Z,14.70
2018-02-19T00:35:28.997Z,14.00
2018-02-19T00:37:31.454Z,15.60
2018-02-19T00:39:33.940Z,13.97
2018-02-19T00:41:36.544Z,15.67
2018-02-19T00:43:39.026Z,15.30
2018-02-19T00:45:41.648Z,14.90
2018-02-19T00:47:44.109Z,14.13
2018-02-19T00:49:46.611Z,15.73
2018-02-19T00:51:49.113Z,15.73
2018-02-19T00:53:51.564Z,15.57
2018-02-19T00:55:54.051Z,15.10
2018-02-19T00:57:56.539Z,15.23
2018-02-19T00:59:59.081Z,14.50
2018-02-19T01:02:01.570Z,15.50
2018-02-19T01:04:04.009Z,16.57
2018-02-19T01:06:06.464Z,14.32
2018-02-19T01:08:08.936Z,14.90
2018-02-19T01:10:11.384Z,15.50
2018-02-19T01:12:13.850Z,14.50
2018-02-19T01:14:16.438Z,15.63
2018-02-19T01:16:19.020Z,15.43
2018-02-19T01:18:21.616Z,14.83
2018-02-19T01:20:24.218Z,14.50
2018-02-19T01:22:26.705Z,14.90
2018-02-19T01:24:29.212Z,15.07
2018-02-19T01:26:31.894Z,14.33
2018-02-19T01:28:34.330Z,14.10
2018-02-19T01:30:36.791Z,15.13
2018-02-19T01:32:39.375Z,14.25
2018-02-19T01:34:41.849Z,14.30
2018-02-19T01:36:44.354Z,15.00
2018-02-19T01:38:46.898Z,13.90
2018-02-19T01:40:49.366Z,14.67
2018-02-19T01:42:51.841Z,14.37
2018-02-19T01:44:54.340Z,15.10
2018-02-19T01:46:56.795Z,15.20
2018-02-19T01:48:59.230Z,14.37
2018-02-19T01:51:01.671Z,14.83
2018-02-19T01:53:04.202Z,14.67
2018-02-19T01:55:06.639Z,15.10
2018-02-19T01:57:09.186Z,15.10
2018-02-19T01:59:11.681Z,15.20
2018-02-19T02:01:14.124Z,14.43
2018-02-19T02:03:16.617Z,14.90
2018-02-19T02:05:19.121Z,14.80
2018-02-19T02:07:21.656Z,15.40
2018-02-19T02:09:24.142Z,15.87
2018-02-19T02:11:26.638Z,15.80
2018-02-19T02:13:29.134Z,15.30
2018-02-19T02:15:31.637Z,15.60
2018-02-19T02:17:34.100Z,14.83
2018-02-19T02:19:36.630Z,14.90
2018-02-19T02:21:39.159Z,16.17
2018-02-19T02:23:41.606Z,14.63
2018-02-19T02:25:44.191Z,14.97
2018-02-19T02:27:46.687Z,15.20
2018-02-19T02:29:49.177Z,15.23
2018-02-19T02:31:51.640Z,14.87
2018-02-19T02:33:54.070Z,14.77
2018-02-19T02:35:58.022Z,16.53
2018-02-19T02:38:00.500Z,14.97
2018-02-19T02:40:02.952Z,15.60
2018-02-19T02:42:05.421Z,15.17
2018-02-19T02:44:07.962Z,14.20
2018-02-19T02:46:10.412Z,15.00
2018-02-19T02:48:12.953Z,14.57
2018-02-19T02:50:15.403Z,14.60
2018-02-19T02:52:17.932Z,15.17
2018-02-19T02:54:20.527Z,15.00
2018-02-19T02:56:22.945Z,14.90
2018-02-19T02:58:25.431Z,13.90
2018-02-19T03:00:27.897Z,15.53
2018-02-19T03:02:30.350Z,15.43
2018-02-19T03:04:32.922Z,15.77
2018-02-19T03:06:35.881Z,15.98
2018-02-19T03:08:38.365Z,16.20
2018-02-19T03:10:40.816Z,14.60
2018-02-19T03:12:43.290Z,15.10
2018-02-19T03:14:45.739Z,15.47
2018-02-19T03:16:48.263Z,15.57
2018-02-19T03:18:50.740Z,15.87
2018-02-19T03:20:53.247Z,15.70
2018-02-19T03:22:55.703Z,16.17
2018-02-19T03:24:58.158Z,14.87
2018-02-19T03:27:00.651Z,16.77
2018-02-19T03:29:03.216Z,16.53
2018-02-19T03:31:05.664Z,16.13
2018-02-19T03:33:08.095Z,15.30
2018-02-19T03:35:10.562Z,16.30
2018-02-19T03:37:13.005Z,16.07
2018-02-19T03:39:15.585Z,16.40
2018-02-19T03:41:18.036Z,16.70
2018-02-19T03:43:20.503Z,17.30
2018-02-19T03:45:22.961Z,15.90
2018-02-19T03:47:25.442Z,16.43
2018-02-19T03:49:27.947Z,16.97
2018-02-19T03:51:30.407Z,16.70
2018-02-19T03:53:32.857Z,15.90
2018-02-19T03:55:35.450Z,17.35
2018-02-19T03:57:37.928Z,15.90
2018-02-19T03:59:40.512Z,16.00
2018-02-19T04:01:43.003Z,16.60
2018-02-19T04:03:45.446Z,16.80
2018-02-19T04:05:47.916Z,16.13
2018-02-19T04:07:50.385Z,15.60
2018-02-19T04:09:52.833Z,16.10
2018-02-19T04:11:55.307Z,15.70
2018-02-19T04:13:57.871Z,16.60
2018-02-19T04:16:00.342Z,15.47
2018-02-19T04:18:02.845Z,16.90
2018-02-19T04:20:05.290Z,16.50
2018-02-19T04:22:07.741Z,16.97
2018-02-19T04:24:10.331Z,17.57
2018-02-19T04:26:12.931Z,16.60
2018-02-19T04:28:15.412Z,15.87
2018-02-19T04:30:17.907Z,18.10
2018-02-19T04:32:20.401Z,16.70
2018-02-19T04:34:22.897Z,17.03
2018-02-19T04:36:25.391Z,17.37
2018-02-19T04:38:27.882Z,16.97
2018-02-19T04:40:30.389Z,15.60
2018-02-19T04:42:32.957Z,16.23
2018-02-19T04:44:37.316Z,17.60
2018-02-19T04:46:41.169Z,16.23
2018-02-19T04:48:43.631Z,16.20
2018-02-19T04:50:46.133Z,16.97
2018-02-19T04:52:48.667Z,16.97
2018-02-19T04:54:51.099Z,17.57
2018-02-19T04:56:53.599Z,16.93
2018-02-19T04:58:56.087Z,16.37
2018-02-19T05:00:58.696Z,16.90
2018-02-19T05:03:01.181Z,16.58
2018-02-19T05:05:03.628Z,17.30
2018-02-19T05:07:06.158Z,17.17
2018-02-19T05:09:08.612Z,18.60
2018-02-19T05:11:11.100Z,17.30
2018-02-19T05:13:13.599Z,17.07
2018-02-19T05:15:16.113Z,16.43
2018-02-19T05:17:18.628Z,17.17
2018-02-19T05:19:21.136Z,18.25
2018-02-19T05:21:23.719Z,16.40
2018-02-19T05:23:26.216Z,16.70
2018-02-19T05:25:28.707Z,16.27
2018-02-19T05:27:31.227Z,17.60
2018-02-19T05:29:33.646Z,17.53
2018-02-19T05:31:36.184Z,17.80
2018-02-19T05:33:38.678Z,16.03
2018-02-19T05:35:41.188Z,17.37
2018-02-19T05:37:43.633Z,16.60
2018-02-19T05:39:46.071Z,18.20
2018-02-19T05:41:48.610Z,18.80
2018-02-19T05:43:51.109Z,19.23
2018-02-19T05:45:53.540Z,18.60
2018-02-19T05:47:56.127Z,17.43
2018-02-19T05:49:58.588Z,17.50
2018-02-19T05:52:01.103Z,17.67
2018-02-19T05:54:03.618Z,18.77
2018-02-19T05:56:06.097Z,18.50
2018-02-19T05:58:08.589Z,16.53
2018-02-19T06:00:11.162Z,17.90
2018-02-19T06:02:13.680Z,17.90
2018-02-19T06:04:16.178Z,17.60
2018-02-19T06:06:18.658Z,17.70
2018-02-19T06:08:21.158Z,18.07
2018-02-19T06:10:23.655Z,19.40
2018-02-19T06:12:26.201Z,17.27
2018-02-19T06:14:28.653Z,18.00
2018-02-19T06:16:31.172Z,19.05
2018-02-19T06:18:33.652Z,17.97
2018-02-19T06:20:36.123Z,18.83
2018-02-19T06:22:38.717Z,18.00
2018-02-19T06:24:41.213Z,18.50
2018-02-19T06:26:43.677Z,19.77
2018-02-19T06:28:46.227Z,18.30
2018-02-19T06:30:48.688Z,18.90
2018-02-19T06:32:51.137Z,18.73
2018-02-19T06:34:53.674Z,18.97
2018-02-19T06:36:56.198Z,18.37
2018-02-19T06:38:58.663Z,18.58
2018-02-19T06:41:01.104Z,18.30
2018-02-19T06:43:03.547Z,19.77
2018-02-19T06:45:06.047Z,17.60
2018-02-19T06:47:08.488Z,19.97
2018-02-19T06:49:10.944Z,19.83
2018-02-19T06:51:13.418Z,20.05
2018-02-19T06:53:15.865Z,20.05
2018-02-19T06:55:18.323Z,18.93
2018-02-19T06:57:20.772Z,19.55
2018-02-19T06:59:23.279Z,18.67
2018-02-19T07:01:25.751Z,18.58
2018-02-19T07:03:28.370Z,19.90
2018-02-19T07:05:30.844Z,18.70
2018-02-19T07:07:33.280Z,19.43
2018-02-19T07:09:35.839Z,19.85
2018-02-19T07:11:38.308Z,18.87
2018-02-19T07:13:40.813Z,20.08
2018-02-19T07:15:43.312Z,19.60
2018-02-19T07:17:45.777Z,20.40
2018-02-19T07:19:48.336Z,19.55
2018-02-19T07:21:50.777Z,20.90
2018-02-19T07:23:53.295Z,20.60
2018-02-19T07:25:55.743Z,20.97
2018-02-19T07:27:58.288Z,19.27
2018-02-19T07:30:00.802Z,19.60
2018-02-19T07:32:03.274Z,19.92
2018-02-19T07:34:05.731Z,20.23
2018-02-19T07:36:08.220Z,19.97
2018-02-19T07:38:10.695Z,20.30
2018-02-19T07:40:13.144Z,20.37
2018-02-19T07:42:15.634Z,20.77
2018-02-19T07:44:18.118Z,20.87
2018-02-19T07:46:20.618Z,19.73
2018-02-19T07:48:23.105Z,20.80
2018-02-19T07:50:25.544Z,20.40
2018-02-19T07:52:28.039Z,21.07
2018-02-19T07:54:30.511Z,20.33
2018-02-19T07:56:33.003Z,20.27
2018-02-19T07:58:35.443Z,19.73
2018-02-19T08:00:37.889Z,19.57
2018-02-19T08:02:40.366Z,20.27
2018-02-19T08:04:42.910Z,20.83
2018-02-19T08:06:45.340Z,20.70
2018-02-19T08:08:47.800Z,21.00
2018-02-19T08:10:50.261Z,20.47
2018-02-19T08:12:52.748Z,20.50
2018-02-19T08:14:55.223Z,19.80
2018-02-19T08:16:57.693Z,21.00
2018-02-19T08:19:00.224Z,20.30
2018-02-19T08:21:02.689Z,20.40
2018-02-19T08:23:05.254Z,20.70
2018-02-19T08:25:07.746Z,20.80
2018-02-19T08:27:10.253Z,20.23
2018-02-19T08:29:12.780Z,20.73
2018-02-19T08:31:15.220Z,20.53
2018-02-19T08:33:17.690Z,21.20
2018-02-19T08:35:20.154Z,20.30
2018-02-19T08:37:22.681Z,20.33
2018-02-19T08:39:25.194Z,21.07
2018-02-19T08:41:27.668Z,21.48
2018-02-19T08:43:30.130Z,21.40
2018-02-19T08:45:32.609Z,21.13
2018-02-19T08:47:35.098Z,21.80
2018-02-19T08:49:37.554Z,21.30
2018-02-19T08:51:40.045Z,22.90
2018-02-19T08:53:42.486Z,20.00
2018-02-19T08:55:44.976Z,22.63
2018-02-19T08:57:47.469Z,21.50
2018-02-19T08:59:49.943Z,21.10
2018-02-19T09:01:52.381Z,21.90
2018-02-19T09:03:54.917Z,20.40
2018-02-19T09:05:57.381Z,20.73
2018-02-19T09:07:59.857Z,20.33
2018-02-19T09:10:02.352Z,19.80
2018-02-19T09:12:04.837Z,21.33
2018-02-19T09:14:07.375Z,22.27
2018-02-19T09:16:09.830Z,21.27
2018-02-19T09:18:12.344Z,21.10
2018-02-19T09:20:14.803Z,21.17
2018-02-19T09:22:17.395Z,20.60
2018-02-19T09:24:19.862Z,21.73
2018-02-19T09:26:22.374Z,20.90
2018-02-19T09:28:24.872Z,21.60
2018-02-19T09:30:27.315Z,21.73
2018-02-19T09:32:29.835Z,21.50
2018-02-19T09:34:32.395Z,21.80
2018-02-19T09:36:34.940Z,21.63
2018-02-19T09:38:37.410Z,21.53
2018-02-19T09:40:39.841Z,22.90
2018-02-19T09:42:42.463Z,21.57
2018-02-19T09:44:44.893Z,20.93
2018-02-19T09:46:47.358Z,21.70
2018-02-19T09:48:49.912Z,21.73
2018-02-19T09:50:52.375Z,20.80
2018-02-19T09:52:54.890Z,21.10
2018-02-19T09:54:57.311Z,20.37
2018-02-19T09:56:59.761Z,21.00
2018-02-19T09:59:02.285Z,21.90
2018-02-19T10:01:04.759Z,20.87
2018-02-19T10:03:07.216Z,20.43
2018-02-19T10:05:09.690Z,19.70
2018-02-19T10:07:12.171Z,21.33
2018-02-19T10:09:14.662Z,22.40
2018-02-19T10:11:17.176Z,21.23
2018-02-19T10:13:19.717Z,21.50
2018-02-19T10:15:22.161Z,20.83
2018-02-19T10:17:24.636Z,21.03
2018-02-19T10:19:27.106Z,22.00
2018-02-19T10:21:29.566Z,20.77
2018-02-19T10:23:32.053Z,22.00
2018-02-19T10:25:34.572Z,21.67
2018-02-19T10:27:37.168Z,21.40
2018-02-19T10:29:39.658Z,21.83
2018-02-19T10:31:42.114Z,21.30
2018-02-19T10:33:44.661Z,21.53
2018-02-19T10:35:47.161Z,21.93
2018-02-19T10:37:49.661Z,21.87
2018-02-19T10:39:52.131Z,21.47
2018-02-19T10:41:54.568Z,21.80
2018-02-19T10:43:57.078Z,21.33
2018-02-19T10:45:59.528Z,21.67
2018-02-19T10:48:01.962Z,21.30
2018-02-19T10:50:04.436Z,20.17
2018-02-19T10:52:06.992Z,21.27
2018-02-19T10:54:09.463Z,21.83
2018-02-19T10:56:11.977Z,22.43
2018-02-19T10:58:14.521Z,21.33
2018-02-19T11:00:22.786Z,21.90
2018-02-19T11:02:25.266Z,22.30
2018-02-19T11:04:27.738Z,21.60
2018-02-19T11:06:30.232Z,20.97
2018-02-19T11:08:32.767Z,21.30
2018-02-19T11:10:35.227Z,21.23
2018-02-19T11:12:37.748Z,22.20
2018-02-19T11:14:40.242Z,20.60
2018-02-19T11:16:42.693Z,21.67
2018-02-19T11:18:45.156Z,21.40
2018-02-19T11:20:47.652Z,22.40
2018-02-19T11:22:50.136Z,20.30
2018-02-19T11:24:52.587Z,21.33
2018-02-19T11:26:55.077Z,21.23
2018-02-19T11:28:57.503Z,21.00
2018-02-19T11:30:59.952Z,22.03
2018-02-19T11:33:02.578Z,21.27
2018-02-19T11:35:05.172Z,20.70
2018-02-19T11:37:07.642Z,21.27
2018-02-19T11:39:10.188Z,20.47
2018-02-19T11:41:12.647Z,22.40
2018-02-19T11:43:15.118Z,21.77
2018-02-19T11:45:17.607Z,23.20
2018-02-19T11:47:20.118Z,20.83
2018-02-19T11:49:22.582Z,21.23
2018-02-19T11:51:25.127Z,21.67
2018-02-19T11:53:27.603Z,20.77
2018-02-19T11:55:30.162Z,21.47
2018-02-19T11:57:32.651Z,21.07
2018-02-19T11:59:35.102Z,21.30
2018-02-19T12:01:37.593Z,21.70
2018-02-19T12:03:40.046Z,19.07
2018-02-19T12:05:42.632Z,21.60
2018-02-19T12:07:45.074Z,20.93
2018-02-19T12:09:47.569Z,21.17
2018-02-19T12:11:50.022Z,19.97
2018-02-19T12:13:52.542Z,21.20
2018-02-19T12:15:55.029Z,21.67
2018-02-19T12:17:57.568Z,20.27
2018-02-19T12:20:00.037Z,21.00
2018-02-19T12:22:02.520Z,19.43
2018-02-19T12:24:05.004Z,20.87
2018-02-19T12:26:07.501Z,20.93
2018-02-19T12:28:10.123Z,20.33
2018-02-19T12:30:12.522Z,20.80
2018-02-19T12:32:14.977Z,20.53
2018-02-19T12:34:17.477Z,19.27
2018-02-19T12:36:19.924Z,20.83
2018-02-19T12:38:22.389Z,18.80
2018-02-19T12:40:24.924Z,20.30
2018-02-19T12:42:27.439Z,20.67
2018-02-19T12:44:30.013Z,21.90
2018-02-19T12:46:32.492Z,19.60
2018-02-19T12:48:35.005Z,20.07
2018-02-19T12:50:37.518Z,19.90
2018-02-19T12:52:39.979Z,19.20
2018-02-19T12:54:42.495Z,19.97
2018-02-19T12:56:44.963Z,20.33
2018-02-19T12:58:47.544Z,21.47
2018-02-19T13:00:50.171Z,20.00
2018-02-19T13:02:52.757Z,19.90
2018-02-19T13:04:55.278Z,19.73
2018-02-19T13:06:57.772Z,20.00
2018-02-19T13:09:00.280Z,19.77
2018-02-19T13:11:02.830Z,21.37
2018-02-19T13:13:05.297Z,22.40
2018-02-19T13:15:07.754Z,19.53
2018-02-19T13:17:10.245Z,20.07
2018-02-19T13:19:12.727Z,19.40
2018-02-19T13:21:15.299Z,20.50
2018-02-19T13:23:17.770Z,22.03
2018-02-19T13:25:20.243Z,20.10
2018-02-19T13:27:22.743Z,20.97
2018-02-19T13:29:25.219Z,20.23
2018-02-19T13:31:27.701Z,21.30
2018-02-19T13:33:30.175Z,20.53
2018-02-19T13:35:32.671Z,20.33
2018-02-19T13:37:35.148Z,20.00
2018-02-19T13:39:37.588Z,22.40
2018-02-19T13:41:40.185Z,20.87
2018-02-19T13:43:43.068Z,20.27
2018-02-19T13:45:45.555Z,20.53
2018-02-19T13:47:48.030Z,20.03
2018-02-19T13:49:50.532Z,21.13
2018-02-19T13:51:53.008Z,19.47
2018-02-19T13:53:55.524Z,20.20
2018-02-19T13:55:58.031Z,20.20
2018-02-19T13:58:00.509Z,20.00
2018-02-19T14:00:03.013Z,20.67
2018-02-19T14:02:05.508Z,20.47
2018-02-19T14:04:08.075Z,21.83
2018-02-19T14:06:10.565Z,22.20
2018-02-19T14:08:13.001Z,20.57
2018-02-19T14:10:15.449Z,21.77
2018-02-19T14:12:17.905Z,20.57
2018-02-19T14:14:20.345Z,21.23
2018-02-19T14:16:22.905Z,21.07
2018-02-19T14:18:25.416Z,19.30
2018-02-19T14:20:27.895Z,21.60
2018-02-19T14:22:30.425Z,21.03
2018-02-19T14:24:32.917Z,26.23
2018-02-19T14:26:35.389Z,22.63
2018-02-19T14:28:37.848Z,21.57
2018-02-19T14:30:40.290Z,21.77
2018-02-19T14:32:42.769Z,23.37
2018-02-19T14:34:45.246Z,21.20
2018-02-19T14:36:47.721Z,21.77
2018-02-19T14:38:50.269Z,21.40
2018-02-19T14:40:52.774Z,20.80
2018-02-19T14:42:55.300Z,21.40
2018-02-19T14:44:57.745Z,22.67
2018-02-19T14:47:00.240Z,20.00
2018-02-19T14:49:02.834Z,21.80
2018-02-19T14:51:05.349Z,21.23
2018-02-19T14:53:07.787Z,20.43
2018-02-19T14:55:10.219Z,21.97
2018-02-19T14:57:12.741Z,21.30
2018-02-19T14:59:16.229Z,21.73
2018-02-19T15:01:18.725Z,21.47
2018-02-19T15:03:21.175Z,19.90
2018-02-19T15:05:23.696Z,20.50
2018-02-19T15:07:26.191Z,20.60
2018-02-19T15:09:29.396Z,20.70
2018-02-19T15:11:31.908Z,20.53
2018-02-19T15:13:34.396Z,21.00
2018-02-19T15:15:36.853Z,20.67
2018-02-19T15:17:39.315Z,20.27
2018-02-19T15:19:41.805Z,21.07
2018-02-19T15:21:44.285Z,21.90
2018-02-19T15:23:46.736Z,21.13
2018-02-19T15:25:49.225Z,20.33
2018-02-19T15:27:51.742Z,21.40
2018-02-19T15:29:54.221Z,21.57
2018-02-19T15:31:56.752Z,21.00
2018-02-19T15:33:59.217Z,19.13
2018-02-19T15:36:01.711Z,20.47
2018-02-19T15:38:04.200Z,19.20
2018-02-19T15:40:06.646Z,19.70
2018-02-19T15:42:09.189Z,20.00
2018-02-19T15:44:11.687Z,19.50
2018-02-19T15:46:14.276Z,19.87
2018-02-19T15:48:16.805Z,19.77
2018-02-19T15:50:19.251Z,20.67
2018-02-19T15:52:21.757Z,20.10
2018-02-19T15:54:24.251Z,19.17
2018-02-19T15:56:26.741Z,20.17
2018-02-19T15:58:29.180Z,19.60
2018-02-19T16:00:31.725Z,19.77
2018-02-19T16:02:34.227Z,18.87
2018-02-19T16:04:36.736Z,18.50
2018-02-19T16:06:39.217Z,18.97
2018-02-19T16:08:41.770Z,19.40
2018-02-19T16:10:44.295Z,20.37
2018-02-19T16:12:46.746Z,19.73
2018-02-19T16:14:49.313Z,20.40
2018-02-19T16:16:51.813Z,19.80
2018-02-19T16:18:54.250Z,19.50
2018-02-19T16:20:56.745Z,20.23
2018-02-19T16:22:59.211Z,18.80
2018-02-19T16:25:01.720Z,19.53
2018-02-19T16:27:04.191Z,20.83
2018-02-19T16:29:06.706Z,19.83
2018-02-19T16:31:09.211Z,20.07
2018-02-19T16:33:11.675Z,21.00
2018-02-19T16:35:14.224Z,19.47
2018-02-19T16:37:16.705Z,19.27
2018-02-19T16:39:19.300Z,20.50
2018-02-19T16:41:21.764Z,19.97
2018-02-19T16:43:24.286Z,20.63
2018-02-19T16:45:26.745Z,20.43
2018-02-19T16:47:29.239Z,20.80
2018-02-19T16:49:31.777Z,20.90
2018-02-19T16:51:34.231Z,20.93
2018-02-19T16:53:36.710Z,19.57
2018-02-19T16:55:39.191Z,21.20
2018-02-19T16:57:41.702Z,20.50
2018-02-19T16:59:44.185Z,20.60
2018-02-19T17:01:46.626Z,21.23
2018-02-19T17:03:49.121Z,20.07
2018-02-19T17:05:51.612Z,19.23
2018-02-19T17:07:54.201Z,20.00
2018-02-19T17:09:56.684Z,19.13
2018-02-19T17:11:59.189Z,20.17
2018-02-19T17:14:01.758Z,19.37
2018-02-19T17:16:04.200Z,19.90
2018-02-19T17:18:06.737Z,19.43
2018-02-19T17:20:09.203Z,20.60
2018-02-19T17:22:11.770Z,21.37
2018-02-19T17:24:14.267Z,19.80
2018-02-19T17:26:16.772Z,19.97
2018-02-19T17:28:19.343Z,19.90
2018-02-19T17:30:21.805Z,20.33
2018-02-19T17:32:24.322Z,19.03
2018-02-19T17:34:26.841Z,19.40
2018-02-19T17:36:29.422Z,21.73
2018-02-19T17:38:32.014Z,20.57
2018-02-19T17:40:34.511Z,20.53
2018-02-19T17:42:37.112Z,20.87
2018-02-19T17:44:39.587Z,19.73
2018-02-19T17:46:42.086Z,20.70
2018-02-19T17:48:44.583Z,19.53
2018-02-19T17:50:47.060Z,20.60
2018-02-19T17:52:49.499Z,20.20
2018-02-19T17:54:52.052Z,19.60
2018-02-19T17:56:54.643Z,19.27
2018-02-19T17:58:57.123Z,20.40
2018-02-19T18:00:59.625Z,19.03
2018-02-19T18:03:02.114Z,19.17
2018-02-19T18:05:04.618Z,19.47
2018-02-19T18:07:07.171Z,20.13
2018-02-19T18:09:09.716Z,20.80
2018-02-19T18:11:12.218Z,20.23
2018-02-19T18:13:14.801Z,21.53
2018-02-19T18:15:17.527Z,20.90
2018-02-19T18:17:20.098Z,20.80
2018-02-19T18:19:22.686Z,19.87
2018-02-19T18:21:25.213Z,21.10
2018-02-19T18:23:27.749Z,21.50
2018-02-19T18:25:30.279Z,19.80
2018-02-19T18:27:32.838Z,22.37
2018-02-19T18:29:35.352Z,20.13
2018-02-19T18:31:37.871Z,20.40
2018-02-19T18:33:40.447Z,20.23
2018-02-19T18:35:43.045Z,19.93
2018-02-19T18:37:46.447Z,19.40
2018-02-19T18:39:48.922Z,20.13
2018-02-19T18:41:51.561Z,20.90
2018-02-19T18:43:54.078Z,20.73
2018-02-19T18:45:56.603Z,19.77
2018-02-19T18:47:59.073Z,19.00
2018-02-19T18:50:01.732Z,19.13
2018-02-19T18:52:04.319Z,19.00
2018-02-19T18:54:06.778Z,19.67
2018-02-19T18:56:09.408Z,19.83
2018-02-19T18:58:11.868Z,20.10
2018-02-19T19:00:14.408Z,20.20
2018-02-19T19:02:16.992Z,18.67
2018-02-19T19:04:21.865Z,19.10
2018-02-19T19:06:24.313Z,19.63
2018-02-19T19:08:38.509Z,19.90
2018-02-19T19:10:50.734Z,19.40
2018-02-19T19:12:53.216Z,19.10
2018-02-19T19:14:55.753Z,17.87
2018-02-19T19:16:58.232Z,19.50
2018-02-19T19:19:00.756Z,20.37
2018-02-19T19:21:03.409Z,19.40
2018-02-19T19:23:05.877Z,19.47
2018-02-19T19:25:08.377Z,18.87
2018-02-19T19:27:10.847Z,20.33
2018-02-19T19:29:13.357Z,20.00
2018-02-19T19:31:15.853Z,19.83
2018-02-19T19:33:18.317Z,18.90
2018-02-19T19:35:20.892Z,18.23
2018-02-19T19:37:23.432Z,19.50
2018-02-19T19:39:25.974Z,18.47
2018-02-19T19:41:28.457Z,19.90
2018-02-19T19:43:30.964Z,18.07
2018-02-19T19:45:33.469Z,18.80
2018-02-19T19:47:35.995Z,20.07
2018-02-19T19:49:38.475Z,19.77
2018-02-19T19:51:40.975Z,20.17
2018-02-19T19:53:43.532Z,20.80
2018-02-19T19:55:46.649Z,22.70
2018-02-19T19:57:49.139Z,21.37
2018-02-19T19:59:51.674Z,21.37
2018-02-19T20:01:54.249Z,21.30
2018-02-19T20:03:56.758Z,19.83
2018-02-19T20:05:59.364Z,20.80
2018-02-19T20:08:02.058Z,21.33
2018-02-19T20:10:04.559Z,22.27
2018-02-19T20:12:07.414Z,20.27
2018-02-19T20:16:26.505Z,23.03
2018-02-19T20:18:29.083Z,21.93
2018-02-19T20:20:31.544Z,21.85
2018-02-19T20:22:34.128Z,23.30
2018-02-19T20:24:36.590Z,21.47
2018-02-19T20:26:39.133Z,22.47
2018-02-19T20:28:41.628Z,23.08
2018-02-19T20:30:44.121Z,22.20
2018-02-19T20:32:46.605Z,23.60
2018-02-19T20:34:49.118Z,24.57
2018-02-19T20:36:51.594Z,23.20
2018-02-19T20:38:54.085Z,22.77
2018-02-19T20:40:56.554Z,23.37
2018-02-19T20:42:59.064Z,24.50
2018-02-19T20:45:01.590Z,24.30
2018-02-19T20:47:04.160Z,21.97
2018-02-19T20:49:06.607Z,23.63
2018-02-19T20:51:09.124Z,23.83
2018-02-19T20:53:11.597Z,23.60
2018-02-19T20:55:14.093Z,23.03
2018-02-19T20:57:16.604Z,24.37
2018-02-19T20:59:19.065Z,22.77
2018-02-19T21:01:21.599Z,22.53
2018-02-19T21:03:24.085Z,21.87
2018-02-19T21:05:26.586Z,21.93
2018-02-19T21:07:29.067Z,22.63
2018-02-19T21:09:31.614Z,22.30
2018-02-19T21:11:34.119Z,21.77
2018-02-19T21:13:36.584Z,22.27
2018-02-19T21:15:39.118Z,22.30
2018-02-19T21:17:42.512Z,22.50
2018-02-19T21:19:44.951Z,21.23
2018-02-19T21:21:47.476Z,21.47
2018-02-19T21:23:49.947Z,21.07
2018-02-19T21:25:52.444Z,22.10
2018-02-19T21:27:54.982Z,22.77
2018-02-19T21:29:57.546Z,23.40
2018-02-19T21:32:00.062Z,21.90
2018-02-19T21:34:02.609Z,22.03
2018-02-19T21:36:05.094Z,22.10
2018-02-19T21:38:07.556Z,22.10
2018-02-19T21:40:10.093Z,21.40
2018-02-19T21:42:12.589Z,22.83
2018-02-19T21:44:15.115Z,23.77
2018-02-19T21:46:17.668Z,21.67
2018-02-19T21:48:20.190Z,22.53
2018-02-19T21:50:22.665Z,21.50
2018-02-19T21:52:25.148Z,21.50
2018-02-19T21:54:27.680Z,22.43
2018-02-19T21:56:30.152Z,22.30
2018-02-19T21:58:32.655Z,23.47
2018-02-19T22:00:35.151Z,23.50
2018-02-19T22:02:37.650Z,24.23
2018-02-19T22:04:40.145Z,21.57
2018-02-19T22:06:42.621Z,23.80
2018-02-19T22:08:45.128Z,24.90
2018-02-19T22:10:47.660Z,24.10
2018-02-19T22:12:50.166Z,23.90
2018-02-19T22:14:52.675Z,24.37
2018-02-19T22:16:55.116Z,24.13
2018-02-19T22:18:57.606Z,23.77
2018-02-19T22:21:00.071Z,25.77
2018-02-19T22:23:02.659Z,27.30
2018-02-19T22:25:05.171Z,24.50
2018-02-19T22:27:07.644Z,24.00
2018-02-19T22:29:10.136Z,23.33
2018-02-19T22:31:12.645Z,22.47
2018-02-19T22:33:15.102Z,23.13
2018-02-19T22:35:17.702Z,25.03
2018-02-19T22:37:20.106Z,23.73
2018-02-19T22:39:22.593Z,23.07
2018-02-19T22:41:25.180Z,22.67
2018-02-19T22:43:27.656Z,23.23
2018-02-19T22:45:30.184Z,27.90
2018-02-19T22:47:32.663Z,27.07
2018-02-19T22:49:35.141Z,27.20
2018-02-19T22:51:37.622Z,25.37
2018-02-19T22:53:40.159Z,23.07
2018-02-19T22:55:42.648Z,23.20
2018-02-19T22:57:45.170Z,23.43
2018-02-19T22:59:47.666Z,22.27
2018-02-19T23:01:50.146Z,22.70
2018-02-19T23:03:52.585Z,21.00
2018-02-19T23:05:55.017Z,19.97
2018-02-19T23:07:57.505Z,21.30
2018-02-19T23:09:59.995Z,20.23
2018-02-19T23:12:02.487Z,21.80
2018-02-19T23:14:04.946Z,21.53
2018-02-19T23:16:07.472Z,21.43
2018-02-19T23:18:09.974Z,21.17
2018-02-19T23:20:12.587Z,23.60
2018-02-19T23:22:15.066Z,22.00
2018-02-19T23:24:17.653Z,23.10
2018-02-19T23:26:20.111Z,22.43
2018-02-19T23:28:22.636Z,21.53
2018-02-19T23:30:25.091Z,20.70
2018-02-19T23:32:27.544Z,21.30
2018-02-19T23:34:30.064Z,20.03
2018-02-19T23:36:32.628Z,20.40
2018-02-19T23:38:35.171Z,19.37
2018-02-19T23:40:37.660Z,20.03
2018-02-19T23:42:40.201Z,20.20
2018-02-19T23:44:42.657Z,20.33
2018-02-19T23:46:45.125Z,20.60
2018-02-19T23:48:47.569Z,19.47
2018-02-19T23:50:50.095Z,21.67
2018-02-19T23:52:52.661Z,21.20
2018-02-19T23:54:55.095Z,21.63
2018-02-19T23:56:57.656Z,19.93
2018-02-19T23:59:00.145Z,21.47
